createdAt,value
2022-10-02T00:01:58.881Z,3.53
2022-10-02T00:04:35.210Z,4.50
2022-10-02T00:07:07.839Z,3.47
2022-10-02T00:09:42.023Z,3.57
2022-10-02T00:12:15.793Z,3.93
2022-10-02T00:14:46.577Z,4.07
2022-10-02T00:17:19.498Z,4.60
2022-10-02T00:19:47.242Z,3.27
2022-10-02T00:22:32.824Z,4.33
2022-10-02T00:25:09.230Z,3.83
2022-10-02T00:27:50.524Z,4.30
2022-10-02T00:30:19.094Z,3.60
2022-10-02T00:33:00.514Z,3.80
2022-10-02T00:35:55.694Z,4.13
2022-10-02T00:38:38.374Z,4.20
2022-10-02T00:41:26.976Z,3.87
2022-10-02T00:44:10.635Z,4.20
2022-10-02T00:46:46.377Z,3.93
2022-10-02T00:49:35.341Z,4.50
2022-10-02T00:52:15.556Z,3.43
2022-10-02T00:55:18.576Z,4.00
2022-10-02T00:58:01.030Z,4.50
2022-10-02T01:00:30.189Z,3.70
2022-10-02T01:03:09.836Z,3.97
2022-10-02T01:05:38.246Z,3.67
2022-10-02T01:08:07.291Z,4.23
2022-10-02T01:10:37.081Z,4.23
2022-10-02T01:13:05.392Z,4.50
2022-10-02T01:15:37.104Z,4.20
2022-10-02T01:18:05.706Z,3.93
2022-10-02T01:20:37.688Z,3.77
2022-10-02T01:23:16.433Z,4.07
2022-10-02T01:25:46.057Z,4.07
2022-10-02T01:28:14.043Z,3.83
2022-10-02T01:30:45.463Z,3.90
2022-10-02T01:33:15.085Z,4.30
2022-10-02T01:35:44.219Z,3.60
2022-10-02T01:38:13.476Z,4.03
2022-10-02T01:40:42.001Z,4.23
2022-10-02T01:43:14.569Z,4.70
2022-10-02T01:45:52.777Z,3.83
2022-10-02T01:48:31.403Z,3.80
2022-10-02T01:51:13.912Z,3.87
2022-10-02T01:53:47.628Z,3.87
2022-10-02T01:56:24.153Z,4.30
2022-10-02T01:59:04.687Z,4.00
2022-10-02T02:01:45.085Z,4.33
2022-10-02T02:04:23.173Z,4.10
2022-10-02T02:06:58.157Z,4.17
2022-10-02T02:09:35.476Z,4.17
2022-10-02T02:12:11.105Z,3.43
2022-10-02T02:14:48.385Z,4.60
2022-10-02T02:17:21.493Z,4.23
2022-10-02T02:19:57.411Z,4.00
2022-10-02T02:22:29.141Z,4.03
2022-10-02T02:25:01.346Z,3.63
2022-10-02T02:27:34.702Z,4.17
2022-10-02T02:30:07.783Z,4.60
2022-10-02T02:32:39.958Z,4.43
2022-10-02T02:35:12.512Z,4.47
2022-10-02T02:37:41.905Z,4.20
2022-10-02T02:40:12.792Z,4.17
2022-10-02T02:42:45.700Z,4.67
2022-10-02T02:45:20.600Z,4.00
2022-10-02T02:47:52.144Z,4.20
2022-10-02T02:50:24.855Z,4.40
2022-10-02T02:52:58.669Z,4.53
2022-10-02T02:55:32.491Z,4.43
2022-10-02T02:58:06.762Z,4.60
2022-10-02T03:00:36.971Z,4.57
2022-10-02T03:03:04.890Z,3.90
2022-10-02T03:05:33.415Z,4.40
2022-10-02T03:08:04.352Z,4.87
2022-10-02T03:10:50.753Z,3.90
2022-10-02T03:13:32.277Z,3.57
2022-10-02T03:16:16.948Z,3.87
2022-10-02T03:18:58.562Z,4.40
2022-10-02T03:21:31.572Z,4.20
2022-10-02T03:24:07.428Z,4.23
2022-10-02T03:26:41.202Z,5.33
2022-10-02T03:29:15.586Z,4.80
2022-10-02T03:31:46.225Z,5.43
2022-10-02T03:34:14.430Z,4.43
2022-10-02T03:36:42.346Z,3.70
2022-10-02T03:39:24.797Z,4.37
2022-10-02T03:41:53.374Z,3.53
2022-10-02T03:44:21.324Z,4.43
2022-10-02T03:46:50.539Z,4.20
2022-10-02T03:49:18.359Z,4.43
2022-10-02T03:51:46.073Z,4.53
2022-10-02T03:54:17.830Z,4.40
2022-10-02T03:56:54.053Z,4.47
2022-10-02T03:59:34.522Z,4.57
2022-10-02T04:02:08.924Z,4.00
2022-10-02T04:04:45.691Z,3.77
2022-10-02T04:07:19.548Z,4.50
2022-10-02T04:09:53.124Z,4.40
2022-10-02T04:12:24.937Z,4.67
2022-10-02T04:14:57.099Z,3.33
2022-10-02T04:17:35.051Z,4.00
2022-10-02T04:20:11.538Z,3.70
2022-10-02T04:22:44.815Z,4.47
2022-10-02T04:25:17.456Z,4.77
2022-10-02T04:27:51.451Z,4.23
2022-10-02T04:30:20.973Z,4.13
2022-10-02T04:32:50.447Z,3.67
2022-10-02T04:35:26.688Z,5.47
2022-10-02T04:38:07.645Z,4.20
2022-10-02T04:40:50.548Z,3.80
2022-10-02T04:43:34.700Z,4.67
2022-10-02T04:46:17.117Z,4.80
2022-10-02T04:49:05.383Z,4.40
2022-10-02T04:51:47.465Z,4.03
2022-10-02T04:54:46.112Z,4.33
2022-10-02T04:57:28.283Z,4.60
2022-10-02T05:00:05.110Z,4.43
2022-10-02T05:02:57.763Z,5.30
2022-10-02T05:05:36.038Z,4.10
2022-10-02T05:08:22.860Z,4.30
2022-10-02T05:11:05.948Z,3.30
2022-10-02T05:13:59.259Z,3.73
2022-10-02T05:16:47.215Z,4.60
2022-10-02T05:19:41.300Z,4.17
2022-10-02T05:22:45.278Z,3.53
2022-10-02T05:25:34.815Z,4.07
2022-10-02T05:28:16.468Z,3.90
2022-10-02T05:30:49.399Z,3.87
2022-10-02T05:33:48.502Z,3.93
2022-10-02T05:37:02.390Z,3.57
2022-10-02T05:39:34.487Z,3.37
2022-10-02T05:42:09.076Z,3.80
2022-10-02T05:44:40.220Z,3.70
2022-10-02T05:47:13.641Z,4.17
2022-10-02T05:49:45.765Z,3.85
2022-10-02T05:52:19.603Z,3.73
2022-10-02T05:54:55.438Z,3.38
2022-10-02T05:57:32.056Z,3.83
2022-10-02T06:00:20.720Z,3.00
2022-10-02T06:02:57.224Z,3.67
2022-10-02T06:05:30.375Z,3.87
2022-10-02T06:08:03.699Z,3.85
2022-10-02T06:10:39.184Z,3.72
2022-10-02T06:13:13.764Z,3.27
2022-10-02T06:15:47.841Z,3.23
2022-10-02T06:18:20.564Z,3.40
2022-10-02T06:20:52.973Z,4.00
2022-10-02T06:23:25.657Z,2.87
2022-10-02T06:25:57.181Z,3.33
2022-10-02T06:28:30.322Z,3.07
2022-10-02T06:31:03.673Z,2.83
2022-10-02T06:33:33.144Z,3.33
2022-10-02T06:36:41.216Z,3.07
2022-10-02T06:39:31.251Z,2.77
2022-10-02T06:42:12.792Z,3.10
2022-10-02T06:44:50.447Z,3.37
2022-10-02T06:47:34.868Z,3.00
2022-10-02T06:50:21.099Z,2.53
2022-10-02T06:52:57.929Z,2.60
2022-10-02T06:55:38.701Z,2.87
2022-10-02T06:58:25.133Z,2.57
2022-10-02T07:01:00.002Z,2.97
2022-10-02T07:03:51.953Z,3.10
2022-10-02T07:06:36.969Z,2.47
2022-10-02T07:09:30.619Z,2.40
2022-10-02T07:12:10.733Z,2.47
2022-10-02T07:15:01.115Z,2.57
2022-10-02T07:17:40.315Z,2.40
2022-10-02T07:20:36.398Z,2.30
2022-10-02T07:23:28.146Z,2.63
2022-10-02T07:26:25.801Z,2.10
2022-10-02T07:29:00.527Z,2.90
2022-10-02T07:31:46.137Z,2.50
2022-10-02T07:34:28.926Z,2.30
2022-10-02T07:37:06.973Z,2.00
2022-10-02T07:39:49.806Z,2.70
2022-10-02T07:42:46.595Z,2.40
2022-10-02T07:45:30.301Z,2.00
2022-10-02T07:48:28.951Z,1.90
2022-10-02T07:51:05.111Z,2.43
2022-10-02T07:53:41.090Z,2.20
2022-10-02T07:56:19.888Z,2.13
2022-10-02T07:58:52.690Z,1.65
2022-10-02T08:01:25.911Z,1.67
2022-10-02T08:03:59.240Z,2.10
2022-10-02T08:06:27.042Z,2.43
2022-10-02T08:08:57.628Z,1.90
2022-10-02T08:11:30.184Z,1.80
2022-10-02T08:14:03.369Z,2.20
2022-10-02T08:16:37.878Z,1.83
2022-10-02T08:19:14.410Z,2.00
2022-10-02T08:21:46.677Z,2.10
2022-10-02T08:24:18.867Z,1.90
2022-10-02T08:26:51.983Z,1.70
2022-10-02T08:29:25.904Z,1.33
2022-10-02T08:31:54.037Z,1.93
2022-10-02T08:34:25.635Z,1.90
2022-10-02T08:37:13.181Z,1.90
2022-10-02T08:40:01.501Z,2.17
2022-10-02T08:43:12.069Z,1.67
2022-10-02T08:46:06.597Z,1.80
2022-10-02T08:49:13.402Z,1.93
2022-10-02T08:51:57.715Z,2.10
2022-10-02T08:55:06.967Z,1.88
2022-10-02T08:58:16.100Z,1.70
2022-10-02T09:00:58.790Z,1.70
2022-10-02T09:04:28.247Z,2.40
2022-10-02T09:07:29.279Z,1.67
2022-10-02T09:10:35.450Z,2.10
2022-10-02T09:13:45.869Z,1.80
2022-10-02T09:16:20.101Z,1.83
2022-10-02T09:18:59.971Z,1.70
2022-10-02T09:21:43.563Z,1.83
2022-10-02T09:24:43.179Z,1.60
2022-10-02T09:27:43.935Z,1.60
2022-10-02T09:30:49.219Z,1.90
2022-10-02T09:34:08.391Z,2.00
2022-10-02T09:37:04.940Z,1.97
2022-10-02T09:40:08.846Z,1.93
2022-10-02T09:43:12.482Z,1.57
2022-10-02T09:46:13.863Z,1.70
2022-10-02T09:49:27.046Z,1.70
2022-10-02T09:52:23.174Z,1.70
2022-10-02T09:55:36.771Z,1.50
2022-10-02T09:58:46.224Z,1.70
2022-10-02T10:01:36.703Z,1.60
2022-10-02T10:05:05.214Z,2.23
2022-10-02T10:08:07.402Z,2.37
2022-10-02T10:10:54.814Z,2.10
2022-10-02T10:14:04.075Z,2.40
2022-10-02T10:17:19.222Z,2.53
2022-10-02T10:20:31.046Z,2.08
2022-10-02T10:23:36.395Z,2.30
2022-10-02T10:26:37.393Z,1.60
2022-10-02T10:29:34.751Z,1.90
2022-10-02T10:32:43.676Z,1.70
2022-10-02T10:35:56.081Z,1.70
2022-10-02T10:38:52.290Z,1.50
2022-10-02T10:41:45.523Z,1.90
2022-10-02T10:44:39.565Z,2.28
2022-10-02T10:47:35.908Z,2.27
2022-10-02T10:50:26.785Z,1.50
2022-10-02T10:53:17.069Z,1.77
2022-10-02T10:56:03.717Z,2.03
2022-10-02T10:58:46.304Z,2.53
2022-10-02T11:01:18.692Z,1.83
2022-10-02T11:04:39.280Z,1.77
2022-10-02T11:07:19.863Z,1.83
2022-10-02T11:10:11.798Z,2.07
2022-10-02T11:13:12.855Z,2.00
2022-10-02T11:16:27.849Z,2.10
2022-10-02T11:19:23.196Z,2.10
2022-10-02T11:22:25.900Z,2.00
2022-10-02T11:25:27.521Z,1.93
2022-10-02T11:28:28.461Z,2.13
2022-10-02T11:31:12.626Z,2.20
2022-10-02T11:34:07.542Z,2.30
2022-10-02T11:36:47.522Z,2.20
2022-10-02T11:39:20.940Z,2.40
2022-10-02T11:42:12.986Z,2.20
2022-10-02T11:44:57.665Z,2.45
2022-10-02T11:47:47.220Z,2.42
2022-10-02T11:50:41.269Z,2.00
2022-10-02T11:53:24.804Z,2.40
2022-10-02T11:56:14.310Z,2.20
2022-10-02T11:59:06.114Z,2.35
2022-10-02T12:01:45.257Z,1.85
2022-10-02T12:04:29.954Z,1.92
2022-10-02T12:07:17.691Z,1.80
2022-10-02T12:09:57.283Z,2.40
2022-10-02T12:12:39.280Z,2.07
2022-10-02T12:15:17.123Z,2.57
2022-10-02T12:18:01.135Z,2.50
2022-10-02T12:21:00.116Z,2.67
2022-10-02T12:24:07.958Z,2.67
2022-10-02T12:27:04.065Z,1.93
2022-10-02T12:30:07.140Z,2.50
2022-10-02T12:32:48.034Z,2.30
2022-10-02T12:35:39.198Z,2.42
2022-10-02T12:38:20.184Z,2.30
2022-10-02T12:40:59.651Z,2.70
2022-10-02T12:44:00.643Z,2.88
2022-10-02T12:46:52.597Z,2.72
2022-10-02T12:49:34.184Z,2.00
2022-10-02T12:52:34.215Z,2.63
2022-10-02T12:55:49.007Z,2.83
2022-10-02T12:58:23.852Z,2.35
2022-10-02T13:01:18.506Z,2.38
2022-10-02T13:04:09.364Z,2.50
2022-10-02T13:07:14.693Z,2.03
2022-10-02T13:09:51.389Z,2.30
2022-10-02T13:12:42.231Z,2.50
2022-10-02T13:15:26.383Z,2.60
2022-10-02T13:18:04.367Z,2.47
2022-10-02T13:20:40.223Z,2.45
2022-10-02T13:23:21.871Z,2.90
2022-10-02T13:25:59.673Z,2.67
2022-10-02T13:28:50.923Z,2.60
2022-10-02T13:31:30.415Z,2.70
2022-10-02T13:34:15.003Z,2.85
2022-10-02T13:36:55.748Z,3.22
2022-10-02T13:39:35.064Z,2.80
2022-10-02T13:42:28.887Z,3.08
2022-10-02T13:45:05.471Z,2.90
2022-10-02T13:47:41.509Z,2.92
2022-10-02T13:50:39.607Z,3.08
2022-10-02T13:53:32.286Z,3.00
2022-10-02T13:56:14.707Z,3.60
2022-10-02T13:58:59.560Z,3.80
2022-10-02T14:01:40.233Z,3.25
2022-10-02T14:04:23.377Z,2.78
2022-10-02T14:06:57.597Z,3.13
2022-10-02T14:09:42.513Z,2.92
2022-10-02T14:12:25.857Z,3.13
2022-10-02T14:15:22.129Z,3.30
2022-10-02T14:18:16.304Z,2.80
2022-10-02T14:20:55.426Z,3.25
2022-10-02T14:23:54.105Z,3.30
2022-10-02T14:26:34.118Z,3.17
2022-10-02T14:29:27.469Z,3.60
2022-10-02T14:32:39.542Z,2.93
2022-10-02T14:35:28.339Z,3.60
2022-10-02T14:38:11.599Z,3.90
2022-10-02T14:40:51.069Z,3.75
2022-10-02T14:43:46.719Z,3.40
2022-10-02T14:46:36.540Z,3.67
2022-10-02T14:49:22.420Z,3.63
2022-10-02T14:52:05.996Z,3.83
2022-10-02T14:54:50.353Z,4.30
2022-10-02T14:57:38.057Z,3.60
2022-10-02T15:00:19.461Z,3.50
2022-10-02T15:03:10.989Z,4.00
2022-10-02T15:06:10.193Z,4.37
2022-10-02T15:08:43.928Z,3.42
2022-10-02T15:11:22.887Z,3.38
2022-10-02T15:13:56.761Z,4.35
2022-10-02T15:16:51.347Z,4.37
2022-10-02T15:19:26.274Z,3.97
2022-10-02T15:22:01.975Z,4.50
2022-10-02T15:24:36.104Z,4.00
2022-10-02T15:27:12.783Z,4.05
2022-10-02T15:29:53.843Z,4.15
2022-10-02T15:32:42.193Z,3.40
2022-10-02T15:35:29.637Z,3.67
2022-10-02T15:38:17.974Z,4.22
2022-10-02T15:40:56.956Z,3.65
2022-10-02T15:43:48.995Z,3.58
2022-10-02T15:46:25.931Z,3.40
2022-10-02T15:49:12.112Z,3.38
2022-10-02T15:51:51.763Z,3.55
2022-10-02T15:54:32.870Z,3.20
2022-10-02T15:57:27.747Z,3.28
2022-10-02T16:00:16.217Z,3.25
2022-10-02T16:03:17.126Z,3.03
2022-10-02T16:05:53.167Z,3.57
2022-10-02T16:09:02.592Z,3.25
2022-10-02T16:11:54.088Z,3.75
2022-10-02T16:14:32.753Z,3.40
2022-10-02T16:17:19.894Z,4.28
2022-10-02T16:20:05.579Z,3.78
2022-10-02T16:22:48.655Z,3.77
2022-10-02T16:25:31.964Z,3.53
2022-10-02T16:28:14.732Z,3.20
2022-10-02T16:31:04.238Z,3.35
2022-10-02T16:33:43.791Z,3.78
2022-10-02T16:36:38.203Z,3.47
2022-10-02T16:39:24.626Z,3.60
2022-10-02T16:42:02.760Z,3.90
2022-10-02T16:45:06.003Z,4.07
2022-10-02T16:47:43.977Z,3.40
2022-10-02T16:50:20.248Z,3.83
2022-10-02T16:52:54.821Z,3.75
2022-10-02T16:55:30.305Z,4.10
2022-10-02T16:58:13.230Z,3.92
2022-10-02T17:00:54.413Z,4.20
2022-10-02T17:03:33.574Z,3.60
2022-10-02T17:06:08.191Z,4.40
2022-10-02T17:08:43.515Z,3.50
2022-10-02T17:11:21.250Z,5.03
2022-10-02T17:14:06.236Z,4.20
2022-10-02T17:16:40.881Z,3.97
2022-10-02T17:19:22.191Z,4.03
2022-10-02T17:21:55.135Z,5.03
2022-10-02T17:24:34.538Z,4.80
2022-10-02T17:27:14.076Z,4.50
2022-10-02T17:29:54.216Z,4.50
2022-10-02T17:32:48.139Z,4.68
2022-10-02T17:35:18.239Z,4.43
2022-10-02T17:38:02.273Z,4.75
2022-10-02T17:40:37.853Z,4.93
2022-10-02T17:43:17.217Z,4.45
2022-10-02T17:45:58.240Z,4.97
2022-10-02T17:48:50.841Z,5.37
2022-10-02T17:51:51.853Z,5.40
2022-10-02T17:54:52.168Z,5.53
2022-10-02T17:57:39.280Z,5.63
2022-10-02T18:00:21.906Z,5.80
2022-10-02T18:03:23.639Z,5.38
2022-10-02T18:06:04.359Z,5.67
2022-10-02T18:08:49.805Z,4.93
2022-10-02T18:11:32.143Z,4.90
2022-10-02T18:14:13.929Z,5.23
2022-10-02T18:17:03.249Z,4.83
2022-10-02T18:19:37.959Z,5.50
2022-10-02T18:22:33.608Z,5.00
2022-10-02T18:25:31.001Z,5.03
2022-10-02T18:28:17.735Z,4.35
2022-10-02T18:30:50.126Z,4.57
2022-10-02T18:33:42.349Z,4.80
2022-10-02T18:36:29.026Z,3.97
2022-10-02T18:39:02.411Z,4.67
2022-10-02T18:41:55.632Z,4.53
2022-10-02T18:44:42.877Z,4.80
2022-10-02T18:47:26.457Z,4.10
2022-10-02T18:50:07.801Z,4.03
2022-10-02T18:52:53.030Z,3.77
2022-10-02T18:55:46.221Z,3.57
2022-10-02T18:58:26.974Z,3.83
2022-10-02T19:01:21.215Z,3.57
2022-10-02T19:04:03.814Z,4.00
2022-10-02T19:06:34.029Z,3.43
2022-10-02T19:09:19.036Z,3.07
2022-10-02T19:11:56.213Z,2.90
2022-10-02T19:14:34.945Z,3.07
2022-10-02T19:17:08.685Z,3.20
2022-10-02T19:19:36.872Z,3.00
2022-10-02T19:22:12.863Z,3.07
2022-10-02T19:24:43.009Z,3.40
2022-10-02T19:27:19.732Z,3.50
2022-10-02T19:29:55.983Z,3.67
2022-10-02T19:32:27.739Z,3.80
2022-10-02T19:35:03.832Z,3.60
2022-10-02T19:37:32.947Z,3.87
2022-10-02T19:40:04.612Z,3.53
2022-10-02T19:42:47.251Z,3.80
2022-10-02T19:45:25.503Z,3.00
2022-10-02T19:47:56.919Z,3.70
2022-10-02T19:50:28.735Z,3.50
2022-10-02T19:53:00.659Z,3.35
2022-10-02T19:55:33.638Z,3.23
2022-10-02T19:58:07.669Z,3.63
2022-10-02T20:00:38.713Z,3.35
2022-10-02T20:03:11.195Z,4.43
2022-10-02T20:05:38.954Z,3.43
2022-10-02T20:08:15.083Z,3.17
2022-10-02T20:10:47.739Z,3.23
2022-10-02T20:13:20.190Z,3.70
2022-10-02T20:16:12.346Z,3.30
2022-10-02T20:18:40.400Z,3.23
2022-10-02T20:21:16.760Z,3.17
2022-10-02T20:23:50.418Z,3.17
2022-10-02T20:26:23.283Z,3.60
2022-10-02T20:28:56.611Z,3.05
2022-10-02T20:31:34.425Z,3.00
2022-10-02T20:34:05.552Z,3.03
2022-10-02T20:36:38.423Z,2.90
2022-10-02T20:39:09.767Z,3.40
2022-10-02T20:41:55.640Z,3.13
2022-10-02T20:44:25.670Z,3.00
2022-10-02T20:47:23.291Z,2.57
2022-10-02T20:50:15.144Z,2.80
2022-10-02T20:53:06.374Z,2.60
2022-10-02T20:55:43.416Z,2.63
2022-10-02T20:58:33.179Z,2.57
2022-10-02T21:01:16.881Z,2.30
2022-10-02T21:04:22.580Z,2.60
2022-10-02T21:07:20.238Z,3.23
2022-10-02T21:10:17.661Z,2.77
2022-10-02T21:13:09.902Z,3.43
2022-10-02T21:15:53.470Z,2.90
2022-10-02T21:18:51.148Z,3.00
2022-10-02T21:21:41.635Z,3.20
2022-10-02T21:24:34.068Z,3.43
2022-10-02T21:27:36.846Z,3.27
2022-10-02T21:30:13.718Z,2.70
2022-10-02T21:32:55.588Z,3.83
2022-10-02T21:35:57.143Z,3.50
2022-10-02T21:38:46.794Z,3.40
2022-10-02T21:41:44.148Z,3.17
2022-10-02T21:44:53.615Z,3.20
2022-10-02T21:48:04.540Z,2.97
2022-10-02T21:50:56.799Z,3.20
2022-10-02T21:53:50.964Z,2.83
2022-10-02T21:56:49.609Z,2.80
2022-10-02T21:59:51.881Z,3.07
2022-10-02T22:02:43.749Z,3.00
2022-10-02T22:05:34.749Z,3.03
2022-10-02T22:08:15.577Z,3.30
2022-10-02T22:10:57.381Z,2.87
2022-10-02T22:13:31.075Z,3.50
2022-10-02T22:16:13.811Z,3.77
2022-10-02T22:18:49.882Z,3.03
2022-10-02T22:21:41.113Z,2.53
2022-10-02T22:24:32.660Z,3.13
2022-10-02T22:27:18.713Z,3.63
2022-10-02T22:29:48.782Z,3.47
2022-10-02T22:33:04.344Z,2.97
2022-10-02T22:35:45.392Z,3.60
2022-10-02T22:38:17.987Z,3.27
2022-10-02T22:40:52.318Z,3.80
2022-10-02T22:43:29.960Z,3.40
2022-10-02T22:46:03.309Z,3.60
2022-10-02T22:48:38.263Z,3.30
2022-10-02T22:51:16.055Z,2.97
2022-10-02T22:53:50.749Z,3.20
2022-10-02T22:56:26.288Z,3.83
2022-10-02T22:59:03.175Z,2.90
2022-10-02T23:01:42.135Z,3.50
2022-10-02T23:04:21.469Z,3.33
2022-10-02T23:06:53.515Z,3.33
2022-10-02T23:09:25.611Z,2.83
2022-10-02T23:12:01.990Z,3.63
2022-10-02T23:14:39.389Z,2.93
2022-10-02T23:17:13.387Z,3.63
2022-10-02T23:19:45.613Z,2.87
2022-10-02T23:22:23.737Z,2.90
2022-10-02T23:25:00.322Z,2.67
2022-10-02T23:27:39.086Z,2.70
2022-10-02T23:30:11.926Z,2.60
2022-10-02T23:32:48.833Z,3.20
2022-10-02T23:35:24.829Z,3.00
2022-10-02T23:37:58.435Z,2.93
2022-10-02T23:40:44.636Z,3.40
2022-10-02T23:43:18.976Z,2.83
2022-10-02T23:45:52.811Z,3.20
2022-10-02T23:48:20.751Z,2.90
2022-10-02T23:50:55.682Z,3.10
2022-10-02T23:53:58.760Z,3.00
2022-10-02T23:56:42.035Z,2.90
2022-10-02T23:59:28.879Z,3.30
